Colonial Beach, Virginia
Current Conditions -  °F | °C
As of 3:20 AM on Tuesday 27 Jan 2015 (Local Time) from K2W6 Reporting Station
Overcast Overcast  
Wind Chill: 20°   Ceiling: 1200
Heat Index: 28°   Visibility: 10mi
Dew Point: 23°   Wind: 8mph
Humidity: 80%   Direction: 320°NW
Pressure: 29.73"   Gusts: NA
Location:  38.25°N, 76.96°W
Report Text: K2W6 270820Z AUTO 32007KT 300V000 10SM OVC012 M02/M05 A2973 RMK AO1
Loading
Personal Weather Stations






























Interactive Weather Map New forecast layout! Learn more

10-Day Weather Forecast

Advertisements
Track Severe Weather on mobile